createdAt,value
2022-11-07T00:02:50.903Z,99064.63
2022-11-07T00:06:52.199Z,99070.63
2022-11-07T00:10:54.326Z,99067.97
2022-11-07T00:14:55.588Z,99070.56
2022-11-07T00:18:56.882Z,99074.00
2022-11-07T00:22:58.253Z,99078.25
2022-11-07T00:27:00.422Z,99080.78
2022-11-07T00:31:01.891Z,99087.69
2022-11-07T00:35:03.522Z,99086.78
2022-11-07T00:39:05.799Z,99085.03
2022-11-07T00:43:07.644Z,99080.69
2022-11-07T00:47:08.908Z,99091.06
2022-11-07T00:51:12.060Z,99095.41
2022-11-07T00:55:13.359Z,99100.56
2022-11-07T00:59:14.706Z,99099.66
2022-11-07T01:03:34.681Z,99103.13
2022-11-07T01:07:36.774Z,99091.00
2022-11-07T01:11:38.588Z,99084.97
2022-11-07T01:15:40.495Z,99087.59
2022-11-07T01:19:41.744Z,99091.91
2022-11-07T01:23:43.171Z,99099.72
2022-11-07T01:27:44.414Z,99109.22
2022-11-07T01:31:46.603Z,99100.53
2022-11-07T01:35:47.874Z,99098.84
2022-11-07T01:39:49.135Z,99100.56
2022-11-07T01:44:08.847Z,99098.00
2022-11-07T01:48:10.123Z,99096.31
2022-11-07T01:52:14.292Z,99104.13
2022-11-07T01:56:17.205Z,99106.75
2022-11-07T02:00:19.602Z,99106.81
2022-11-07T02:04:23.633Z,99105.13
2022-11-07T02:08:25.692Z,99107.75
2022-11-07T02:12:27.270Z,99106.00
2022-11-07T02:16:28.752Z,99109.50
2022-11-07T02:20:30.040Z,99108.66
2022-11-07T02:24:33.411Z,99111.25
2022-11-07T02:28:36.548Z,99118.13
2022-11-07T02:32:38.096Z,99115.56
2022-11-07T02:36:39.427Z,99123.31
2022-11-07T02:40:41.476Z,99120.75
2022-11-07T02:44:42.809Z,99118.13
2022-11-07T02:48:48.390Z,99131.13
2022-11-07T02:52:49.708Z,99121.63
2022-11-07T02:56:51.538Z,99124.25
2022-11-07T03:00:53.232Z,99119.97
2022-11-07T03:04:54.593Z,99122.53
2022-11-07T03:08:56.460Z,99121.69
2022-11-07T03:12:57.759Z,99130.38
2022-11-07T03:16:59.078Z,99137.31
2022-11-07T03:21:00.675Z,99141.66
2022-11-07T03:25:02.070Z,99145.16
2022-11-07T03:29:03.331Z,99144.28
2022-11-07T03:33:04.731Z,99137.38
2022-11-07T03:37:06.019Z,99149.50
2022-11-07T03:41:07.534Z,99149.50
2022-11-07T03:45:09.305Z,99143.50
2022-11-07T03:49:10.689Z,99148.69
2022-11-07T03:53:12.579Z,99148.69
2022-11-07T03:57:14.319Z,99152.13
2022-11-07T04:01:15.752Z,99155.59
2022-11-07T04:05:17.342Z,99159.91
2022-11-07T04:09:18.626Z,99159.06
2022-11-07T04:13:38.571Z,99161.66
2022-11-07T04:17:39.883Z,99157.31
2022-11-07T04:21:41.513Z,99149.53
2022-11-07T04:26:01.975Z,99153.88
2022-11-07T04:30:19.617Z,99158.19
2022-11-07T04:34:22.398Z,99155.56
2022-11-07T04:38:24.141Z,99155.53
2022-11-07T04:42:25.420Z,99143.41
2022-11-07T04:46:26.851Z,99136.47
2022-11-07T04:50:29.191Z,99141.69
2022-11-07T04:54:30.552Z,99144.25
2022-11-07T04:58:31.959Z,99148.53
2022-11-07T05:02:33.368Z,99148.53
2022-11-07T05:06:35.848Z,99147.66
2022-11-07T05:10:37.211Z,99148.53
2022-11-07T05:14:38.751Z,99145.97
2022-11-07T05:18:40.366Z,99142.50
2022-11-07T05:23:01.354Z,99152.03
2022-11-07T05:27:02.767Z,99154.63
2022-11-07T05:31:04.906Z,99155.53
2022-11-07T05:35:06.296Z,99160.75
2022-11-07T05:39:07.630Z,99164.22
2022-11-07T05:43:10.192Z,99165.09
2022-11-07T05:47:11.427Z,99180.66
2022-11-07T05:51:12.725Z,99181.53
2022-11-07T05:55:14.197Z,99178.06
2022-11-07T05:59:15.553Z,99183.25
2022-11-07T06:03:20.190Z,99186.72
2022-11-07T06:07:21.989Z,99179.78
2022-11-07T06:11:23.559Z,99176.31
2022-11-07T06:15:25.693Z,99173.69
2022-11-07T06:19:26.975Z,99173.69
2022-11-07T06:23:28.300Z,99171.09
2022-11-07T06:27:30.685Z,99173.69
2022-11-07T06:31:32.657Z,99168.53
2022-11-07T06:35:35.397Z,99178.06
2022-11-07T06:39:36.726Z,99187.56
2022-11-07T06:43:38.606Z,99190.16
2022-11-07T06:47:40.452Z,99188.41
2022-11-07T06:51:46.883Z,99184.06
2022-11-07T06:55:51.227Z,99188.38
2022-11-07T06:59:52.558Z,99192.69
2022-11-07T07:03:53.883Z,99195.28
2022-11-07T07:07:57.105Z,99198.72
2022-11-07T07:11:59.089Z,99206.50
2022-11-07T07:16:02.427Z,99218.59
2022-11-07T07:20:05.916Z,99217.72
2022-11-07T07:24:07.585Z,99227.22
2022-11-07T07:28:10.077Z,99215.97
2022-11-07T07:32:11.440Z,99222.84
2022-11-07T07:36:17.812Z,99231.50
2022-11-07T07:40:22.109Z,99230.59
2022-11-07T07:44:23.911Z,99239.19
2022-11-07T07:48:25.341Z,99247.84
2022-11-07T07:52:26.794Z,99244.31
2022-11-07T07:56:28.309Z,99244.28
2022-11-07T08:00:29.648Z,99247.69
2022-11-07T08:04:31.287Z,99244.19
2022-11-07T08:08:37.959Z,99245.84
2022-11-07T08:12:44.006Z,99244.94
2022-11-07T08:16:45.464Z,99246.63
2022-11-07T08:20:46.988Z,99258.72
2022-11-07T08:24:48.269Z,99257.84
2022-11-07T08:28:50.149Z,99267.31
2022-11-07T08:32:51.533Z,99261.22
2022-11-07T08:36:52.902Z,99264.66
2022-11-07T08:40:54.324Z,99267.16
2022-11-07T08:44:55.599Z,99265.41
2022-11-07T08:48:58.108Z,99273.22
2022-11-07T09:07:44.028Z,99267.28
2022-11-07T09:16:59.709Z,99263.97
2022-11-07T09:21:01.699Z,99263.56
2022-11-07T09:25:04.463Z,99275.41
2022-11-07T09:29:06.107Z,99263.22
2022-11-07T09:33:08.620Z,99266.69
2022-11-07T09:37:14.397Z,99263.94
2022-11-07T09:41:16.766Z,99279.56
2022-11-07T14:34:23.005Z,99235.66
2022-11-07T14:43:29.546Z,99245.50
2022-11-07T14:52:21.314Z,99236.78
2022-11-07T14:57:24.803Z,99235.97
2022-11-07T15:32:37.287Z,99231.22
2022-11-07T15:37:29.160Z,99234.72
2022-11-07T16:02:54.026Z,99242.00
2022-11-07T17:49:08.256Z,99246.50
2022-11-07T17:53:12.879Z,99253.53
2022-11-07T17:57:17.487Z,99251.91
2022-11-07T18:01:23.750Z,99253.66
2022-11-07T18:05:31.851Z,99257.97
2022-11-07T18:09:34.802Z,99256.22
2022-11-07T18:13:37.519Z,99249.25
2022-11-07T18:17:40.371Z,99250.94
2022-11-07T18:21:44.323Z,99245.69
2022-11-07T18:26:01.027Z,99242.22
2022-11-07T18:30:04.692Z,99242.16
2022-11-07T18:34:13.854Z,99239.50
2022-11-07T18:42:38.193Z,99241.97
2022-11-07T18:46:41.109Z,99247.13
2022-11-07T18:50:47.932Z,99244.50
2022-11-07T18:54:51.086Z,99237.59
2022-11-07T18:58:58.545Z,99235.00
2022-11-07T19:03:02.617Z,99228.97
2022-11-07T19:07:12.430Z,99232.53
2022-11-07T19:11:17.488Z,99232.63
2022-11-07T19:15:24.868Z,99230.91
2022-11-07T19:19:27.315Z,99234.38
2022-11-07T19:23:29.889Z,99242.16
2022-11-07T19:27:37.269Z,99239.56
2022-11-07T19:31:39.729Z,99235.25
2022-11-07T19:35:43.235Z,99237.00
2022-11-07T19:39:45.277Z,99229.22
2022-11-07T19:43:51.518Z,99237.91
2022-11-07T19:47:56.335Z,99226.63
2022-11-07T19:51:59.320Z,99230.06
2022-11-07T19:56:08.889Z,99237.03
2022-11-07T20:00:11.419Z,99222.34
2022-11-07T20:04:14.863Z,99232.81
2022-11-07T20:08:16.356Z,99238.97
2022-11-07T20:12:18.190Z,99233.84
2022-11-07T20:16:20.412Z,99233.88
2022-11-07T20:20:22.566Z,99232.19
2022-11-07T20:24:25.504Z,99229.66
2022-11-07T20:28:26.865Z,99227.00
2022-11-07T21:27:58.535Z,99197.56
2022-11-07T21:32:01.531Z,99200.25
2022-11-07T21:36:07.508Z,99193.44
2022-11-07T21:40:10.405Z,99191.78
2022-11-07T21:44:12.930Z,99191.81
2022-11-07T21:48:16.474Z,99200.56
2022-11-07T21:52:18.368Z,99193.66
2022-11-07T21:56:24.830Z,99187.63
2022-11-07T22:00:26.427Z,99185.06
2022-11-07T22:04:27.832Z,99178.22
2022-11-07T22:08:29.198Z,99170.50
2022-11-07T22:12:30.657Z,99163.66
2022-11-07T22:16:32.588Z,99161.97
2022-11-07T22:20:34.251Z,99156.81
2022-11-07T22:24:35.589Z,99159.41
2022-11-07T22:28:40.368Z,99143.91
2022-11-07T22:32:44.877Z,99138.78
2022-11-07T22:36:46.339Z,99132.81
2022-11-07T22:40:47.669Z,99133.69
2022-11-07T22:44:48.976Z,99127.66
2022-11-07T22:48:51.685Z,99123.44
2022-11-07T22:52:53.030Z,99120.00
2022-11-07T22:56:54.473Z,99120.88
2022-11-07T23:00:55.787Z,99112.25
2022-11-07T23:04:57.248Z,99098.44
2022-11-07T23:08:58.851Z,99107.09
2022-11-07T23:13:00.277Z,99095.03
2022-11-07T23:17:01.534Z,99102.84
2022-11-07T23:21:11.947Z,99096.78
2022-11-07T23:25:13.224Z,99100.28
2022-11-07T23:29:15.889Z,99096.84
2022-11-07T23:33:17.186Z,99089.94
2022-11-07T23:37:18.751Z,99094.31
2022-11-07T23:41:20.031Z,99089.16
2022-11-07T23:45:39.995Z,99076.25
2022-11-07T23:50:00.109Z,99081.47
2022-11-07T23:54:21.017Z,99086.69
2022-11-07T23:58:40.831Z,99068.56
